KSAR

Sparta Community-Hunter Field Airport

Sparta, Illinois, USA
METAR KSAR 212155Z AUTO 33008KT 10SM VCTS SCT013 SCT025 SCT049 23/22 A2968 RMK AO2 LTG DSNT NE THRU SE P0035 T02310218
Observed Flight Rules
Jun-21 @ 21:55 UTC (12 minutes ago) Visual Flight Rules
Wind Visibility Clouds Conditions
330° at 8 knots 10 miles
  • Scattered at 1,300' AGL
  • Scattered at 2,500' AGL
  • Scattered at 4,900' AGL
  • Area Thunderstorm
Temperatures Readings Precipitation
Current 23°C / 73°F
Dewpoint 22°C / 72°F
Humidity 94%
Altimeter 29.68" Hg
Pressure 1005 hPa
Elevation 164
Current Rain 0.35
METAR KSAR 212155Z AUTO 33008KT 10SM VCTS SCT013 SCT025 SCT049 23/22 A2968 RMK AO2 LTG DSNT NE THRU SE P0035 T02310218
Observed Flight Rules
Jun-21 @ 21:55 UTC
(12 minutes ago)
VFR
Wind Visibility
330° at 8 knots 10 miles
Clouds
  • Scattered at 1,300' AGL
  • Scattered at 2,500' AGL
  • Scattered at 4,900' AGL
Conditions
  • Area Thunderstorm
Temperature Dewpoint
23°C / 73°F 22°C / 72°F
Humidity Altimeter Pressure
94% 29.68" Hg 1005 hPa
Current Rain
0.35